sensor_id;sensor_type;location;lat;lon;timestamp;P1;durP1;ratioP1;P2;durP2;ratioP2
22441;SDS011;11388;54.456;9.752;2023-11-21T08:49:25;4.05;;;2.38;;
22441;SDS011;11388;54.456;9.752;2023-11-21T08:51:52;3.45;;;2.55;;
22441;SDS011;11388;54.456;9.752;2023-11-21T08:57:11;6.22;;;2.65;;
22441;SDS011;11388;54.456;9.752;2023-11-21T08:59:43;4.22;;;2.92;;
22441;SDS011;11388;54.456;9.752;2023-11-21T09:46:47;3.53;;;2.33;;
22441;SDS011;11388;54.456;9.752;2023-11-21T09:49:14;2.85;;;2.33;;
22441;SDS011;11388;54.456;9.752;2023-11-21T10:04:42;2.90;;;2.10;;
22441;SDS011;11388;54.456;9.752;2023-11-21T10:07:14;3.90;;;2.30;;
22441;SDS011;11388;54.456;9.752;2023-11-21T10:17:26;4.07;;;2.95;;
22441;SDS011;11388;54.456;9.752;2023-11-21T10:20:10;3.45;;;2.38;;
22441;SDS011;11388;54.456;9.752;2023-11-21T10:36:35;3.83;;;2.30;;
22441;SDS011;11388;54.456;9.752;2023-11-21T10:39:01;4.43;;;2.65;;
22441;SDS011;11388;54.456;9.752;2023-11-21T10:41:27;2.15;;;1.92;;
22441;SDS011;11388;54.456;9.752;2023-11-21T10:50:27;3.72;;;2.40;;
22441;SDS011;11388;54.456;9.752;2023-11-21T10:53:09;3.63;;;2.40;;
22441;SDS011;11388;54.456;9.752;2023-11-21T10:56:26;3.72;;;2.33;;
22441;SDS011;11388;54.456;9.752;2023-11-21T11:06:16;3.50;;;2.65;;
22441;SDS011;11388;54.456;9.752;2023-11-21T11:08:42;4.47;;;2.45;;
22441;SDS011;11388;54.456;9.752;2023-11-21T11:17:27;3.28;;;2.53;;
22441;SDS011;11388;54.456;9.752;2023-11-21T11:20:04;4.80;;;2.90;;
22441;SDS011;11388;54.456;9.752;2023-11-21T11:22:37;3.60;;;2.63;;
22441;SDS011;11388;54.456;9.752;2023-11-21T11:25:25;4.25;;;2.78;;
22441;SDS011;11388;54.456;9.752;2023-11-21T11:35:23;3.53;;;2.25;;
22441;SDS011;11388;54.456;9.752;2023-11-21T11:38:27;4.32;;;2.30;;
22441;SDS011;11388;54.456;9.752;2023-11-21T11:47:05;5.85;;;2.40;;
22441;SDS011;11388;54.456;9.752;2023-11-21T11:49:54;3.28;;;2.00;;
22441;SDS011;11388;54.456;9.752;2023-11-21T11:53:13;4.00;;;1.80;;
22441;SDS011;11388;54.456;9.752;2023-11-21T11:55:43;2.22;;;1.50;;
22441;SDS011;11388;54.456;9.752;2023-11-21T11:58:21;3.22;;;1.60;;
22441;SDS011;11388;54.456;9.752;2023-11-21T12:01:22;1.98;;;1.65;;
22441;SDS011;11388;54.456;9.752;2023-11-21T12:06:59;2.78;;;1.58;;
22441;SDS011;11388;54.456;9.752;2023-11-21T12:12:29;3.17;;;1.90;;
22441;SDS011;11388;54.456;9.752;2023-11-21T12:21:09;1.85;;;1.40;;
22441;SDS011;11388;54.456;9.752;2023-11-21T12:23:40;2.97;;;1.58;;
22441;SDS011;11388;54.456;9.752;2023-11-21T12:26:06;1.90;;;1.42;;
22441;SDS011;11388;54.456;9.752;2023-11-21T12:28:32;3.38;;;1.50;;
22441;SDS011;11388;54.456;9.752;2023-11-21T12:30:57;2.33;;;1.40;;
22441;SDS011;11388;54.456;9.752;2023-11-21T12:33:34;2.22;;;1.48;;
22441;SDS011;11388;54.456;9.752;2023-11-21T12:50:46;3.00;;;1.60;;
22441;SDS011;11388;54.456;9.752;2023-11-21T13:03:20;2.97;;;1.70;;
22441;SDS011;11388;54.456;9.752;2023-11-21T13:33:23;2.50;;;1.30;;
22441;SDS011;11388;54.456;9.752;2023-11-21T13:58:13;2.38;;;1.60;;
22441;SDS011;11388;54.456;9.752;2023-11-21T14:00:45;2.20;;;1.65;;
22441;SDS011;11388;54.456;9.752;2023-11-21T14:03:12;2.80;;;1.58;;
22441;SDS011;11388;54.456;9.752;2023-11-21T14:05:47;3.17;;;1.80;;
22441;SDS011;11388;54.456;9.752;2023-11-21T14:08:19;2.90;;;1.70;;
22441;SDS011;11388;54.456;9.752;2023-11-21T14:10:51;3.20;;;1.63;;
22441;SDS011;11388;54.456;9.752;2023-11-21T14:53:19;4.43;;;2.08;;
22441;SDS011;11388;54.456;9.752;2023-11-21T15:16:55;3.95;;;2.28;;
22441;SDS011;11388;54.456;9.752;2023-11-21T15:19:27;4.70;;;2.28;;
22441;SDS011;11388;54.456;9.752;2023-11-21T15:21:54;4.50;;;2.42;;
22441;SDS011;11388;54.456;9.752;2023-11-21T15:24:19;7.90;;;2.63;;
22441;SDS011;11388;54.456;9.752;2023-11-21T15:26:48;4.45;;;2.65;;
22441;SDS011;11388;54.456;9.752;2023-11-21T15:59:56;3.85;;;2.45;;
22441;SDS011;11388;54.456;9.752;2023-11-21T17:01:55;5.68;;;3.90;;
22441;SDS011;11388;54.456;9.752;2023-11-21T17:04:21;3.80;;;3.25;;
22441;SDS011;11388;54.456;9.752;2023-11-21T17:06:47;4.93;;;3.35;;
22441;SDS011;11388;54.456;9.752;2023-11-21T17:09:14;3.92;;;2.90;;
22441;SDS011;11388;54.456;9.752;2023-11-21T17:11:43;4.82;;;3.83;;
22441;SDS011;11388;54.456;9.752;2023-11-21T17:14:12;5.07;;;3.90;;
22441;SDS011;11388;54.456;9.752;2023-11-21T17:16:38;4.45;;;3.25;;
22441;SDS011;11388;54.456;9.752;2023-11-21T17:19:05;3.50;;;2.50;;
22441;SDS011;11388;54.456;9.752;2023-11-21T17:21:31;3.97;;;3.20;;
22441;SDS011;11388;54.456;9.752;2023-11-21T17:23:57;4.97;;;2.85;;
22441;SDS011;11388;54.456;9.752;2023-11-21T17:26:23;3.35;;;2.70;;
22441;SDS011;11388;54.456;9.752;2023-11-21T17:28:49;3.70;;;2.60;;
22441;SDS011;11388;54.456;9.752;2023-11-21T17:31:15;4.18;;;2.78;;
22441;SDS011;11388;54.456;9.752;2023-11-21T17:36:13;3.28;;;2.22;;
22441;SDS011;11388;54.456;9.752;2023-11-21T17:38:40;3.67;;;2.00;;
22441;SDS011;11388;54.456;9.752;2023-11-21T17:41:06;3.72;;;2.20;;
22441;SDS011;11388;54.456;9.752;2023-11-21T17:43:35;4.20;;;2.40;;
22441;SDS011;11388;54.456;9.752;2023-11-21T17:46:07;3.45;;;2.40;;
22441;SDS011;11388;54.456;9.752;2023-11-21T17:48:33;4.63;;;2.50;;
22441;SDS011;11388;54.456;9.752;2023-11-21T17:51:01;2.85;;;2.20;;
22441;SDS011;11388;54.456;9.752;2023-11-21T17:55:56;3.80;;;2.47;;
22441;SDS011;11388;54.456;9.752;2023-11-21T17:58:22;3.47;;;2.38;;
22441;SDS011;11388;54.456;9.752;2023-11-21T18:00:48;3.33;;;2.70;;
22441;SDS011;11388;54.456;9.752;2023-11-21T18:03:14;5.22;;;2.30;;
22441;SDS011;11388;54.456;9.752;2023-11-21T18:05:39;2.83;;;2.28;;
22441;SDS011;11388;54.456;9.752;2023-11-21T18:08:05;3.33;;;2.40;;
22441;SDS011;11388;54.456;9.752;2023-11-21T18:10:31;3.47;;;2.40;;
22441;SDS011;11388;54.456;9.752;2023-11-21T18:12:59;4.43;;;2.40;;
22441;SDS011;11388;54.456;9.752;2023-11-21T18:15:25;4.78;;;2.28;;
22441;SDS011;11388;54.456;9.752;2023-11-21T18:17:51;5.35;;;2.50;;
22441;SDS011;11388;54.456;9.752;2023-11-21T18:20:16;2.88;;;2.30;;
22441;SDS011;11388;54.456;9.752;2023-11-21T18:22:42;4.15;;;2.40;;
22441;SDS011;11388;54.456;9.752;2023-11-21T18:25:09;4.20;;;2.63;;
22441;SDS011;11388;54.456;9.752;2023-11-21T18:27:35;3.78;;;2.72;;
22441;SDS011;11388;54.456;9.752;2023-11-21T18:30:01;5.20;;;2.50;;
22441;SDS011;11388;54.456;9.752;2023-11-21T18:32:28;4.93;;;2.60;;
22441;SDS011;11388;54.456;9.752;2023-11-21T18:34:54;4.65;;;2.22;;
22441;SDS011;11388;54.456;9.752;2023-11-21T18:37:20;4.13;;;2.30;;
22441;SDS011;11388;54.456;9.752;2023-11-21T18:39:49;2.83;;;2.10;;
22441;SDS011;11388;54.456;9.752;2023-11-21T18:42:15;3.83;;;2.00;;
22441;SDS011;11388;54.456;9.752;2023-11-21T18:44:42;3.40;;;1.85;;
22441;SDS011;11388;54.456;9.752;2023-11-21T18:47:08;3.30;;;1.90;;
22441;SDS011;11388;54.456;9.752;2023-11-21T18:49:40;3.63;;;2.10;;
22441;SDS011;11388;54.456;9.752;2023-11-21T18:52:07;3.08;;;2.30;;
22441;SDS011;11388;54.456;9.752;2023-11-21T18:54:36;3.33;;;2.10;;
22441;SDS011;11388;54.456;9.752;2023-11-21T18:57:09;3.38;;;1.90;;
22441;SDS011;11388;54.456;9.752;2023-11-21T18:59:35;3.05;;;2.10;;
22441;SDS011;11388;54.456;9.752;2023-11-21T19:02:06;7.75;;;2.20;;
22441;SDS011;11388;54.456;9.752;2023-11-21T19:04:37;4.32;;;1.98;;
22441;SDS011;11388;54.456;9.752;2023-11-21T19:07:03;2.90;;;2.10;;
22441;SDS011;11388;54.456;9.752;2023-11-21T19:09:30;4.60;;;2.60;;
22441;SDS011;11388;54.456;9.752;2023-11-21T19:12:01;3.42;;;2.13;;
22441;SDS011;11388;54.456;9.752;2023-11-21T19:14:27;3.50;;;1.88;;
22441;SDS011;11388;54.456;9.752;2023-11-21T19:16:53;3.35;;;2.00;;
22441;SDS011;11388;54.456;9.752;2023-11-21T19:19:19;2.20;;;1.30;;
22441;SDS011;11388;54.456;9.752;2023-11-21T19:21:45;1.30;;;0.90;;
22441;SDS011;11388;54.456;9.752;2023-11-21T19:24:11;1.27;;;0.70;;
22441;SDS011;11388;54.456;9.752;2023-11-21T19:26:37;1.00;;;0.52;;
22441;SDS011;11388;54.456;9.752;2023-11-21T19:29:06;0.73;;;0.57;;
22441;SDS011;11388;54.456;9.752;2023-11-21T19:31:33;1.08;;;0.75;;
22441;SDS011;11388;54.456;9.752;2023-11-21T19:33:59;1.00;;;0.70;;
22441;SDS011;11388;54.456;9.752;2023-11-21T19:36:25;1.33;;;0.70;;
22441;SDS011;11388;54.456;9.752;2023-11-21T19:38:50;2.22;;;0.80;;
22441;SDS011;11388;54.456;9.752;2023-11-21T19:41:20;1.15;;;0.70;;
22441;SDS011;11388;54.456;9.752;2023-11-21T19:46:23;2.63;;;0.98;;
22441;SDS011;11388;54.456;9.752;2023-11-21T19:48:49;1.38;;;0.80;;
22441;SDS011;11388;54.456;9.752;2023-11-21T19:51:17;1.55;;;0.80;;
22441;SDS011;11388;54.456;9.752;2023-11-21T19:53:43;1.33;;;0.80;;
22441;SDS011;11388;54.456;9.752;2023-11-21T19:56:09;2.03;;;1.10;;
22441;SDS011;11388;54.456;9.752;2023-11-21T19:58:38;1.55;;;1.10;;
22441;SDS011;11388;54.456;9.752;2023-11-21T20:01:04;1.98;;;1.27;;
22441;SDS011;11388;54.456;9.752;2023-11-21T20:03:31;2.20;;;1.10;;
22441;SDS011;11388;54.456;9.752;2023-11-21T20:06:00;3.15;;;1.20;;
22441;SDS011;11388;54.456;9.752;2023-11-21T20:08:30;2.00;;;1.40;;
22441;SDS011;11388;54.456;9.752;2023-11-21T20:11:04;3.15;;;1.50;;
22441;SDS011;11388;54.456;9.752;2023-11-21T20:13:30;2.65;;;1.50;;
22441;SDS011;11388;54.456;9.752;2023-11-21T20:15:56;2.33;;;1.50;;
22441;SDS011;11388;54.456;9.752;2023-11-21T20:18:22;2.70;;;1.85;;
22441;SDS011;11388;54.456;9.752;2023-11-21T20:20:51;2.97;;;1.70;;
22441;SDS011;11388;54.456;9.752;2023-11-21T20:23:17;4.05;;;1.80;;
22441;SDS011;11388;54.456;9.752;2023-11-21T20:25:46;2.75;;;1.80;;
22441;SDS011;11388;54.456;9.752;2023-11-21T20:28:12;3.55;;;1.70;;
22441;SDS011;11388;54.456;9.752;2023-11-21T20:30:38;2.97;;;1.77;;
22441;SDS011;11388;54.456;9.752;2023-11-21T20:33:07;3.10;;;1.77;;
22441;SDS011;11388;54.456;9.752;2023-11-21T20:35:33;2.55;;;1.60;;
22441;SDS011;11388;54.456;9.752;2023-11-21T20:38:02;2.67;;;1.75;;
22441;SDS011;11388;54.456;9.752;2023-11-21T20:40:29;2.40;;;1.63;;
22441;SDS011;11388;54.456;9.752;2023-11-21T20:42:55;2.58;;;1.75;;
22441;SDS011;11388;54.456;9.752;2023-11-21T20:45:27;4.57;;;1.88;;
22441;SDS011;11388;54.456;9.752;2023-11-21T20:47:56;3.20;;;1.70;;
22441;SDS011;11388;54.456;9.752;2023-11-21T20:50:23;3.00;;;1.73;;
22441;SDS011;11388;54.456;9.752;2023-11-21T20:52:49;2.55;;;1.70;;
22441;SDS011;11388;54.456;9.752;2023-11-21T20:55:15;2.78;;;1.80;;
22441;SDS011;11388;54.456;9.752;2023-11-21T20:57:42;3.05;;;1.70;;
22441;SDS011;11388;54.456;9.752;2023-11-21T21:00:08;3.35;;;1.70;;
22441;SDS011;11388;54.456;9.752;2023-11-21T21:02:40;2.25;;;1.60;;
22441;SDS011;11388;54.456;9.752;2023-11-21T21:05:06;2.70;;;1.70;;
22441;SDS011;11388;54.456;9.752;2023-11-21T21:07:33;2.50;;;1.60;;
22441;SDS011;11388;54.456;9.752;2023-11-21T21:09:59;3.28;;;1.73;;
22441;SDS011;11388;54.456;9.752;2023-11-21T21:12:25;2.85;;;1.60;;
22441;SDS011;11388;54.456;9.752;2023-11-21T21:14:51;3.97;;;1.70;;
22441;SDS011;11388;54.456;9.752;2023-11-21T21:17:17;1.88;;;1.30;;
22441;SDS011;11388;54.456;9.752;2023-11-21T21:19:46;3.33;;;1.30;;
22441;SDS011;11388;54.456;9.752;2023-11-21T21:22:12;2.67;;;1.30;;
22441;SDS011;11388;54.456;9.752;2023-11-21T21:24:39;2.10;;;1.20;;
22441;SDS011;11388;54.456;9.752;2023-11-21T21:27:05;2.60;;;1.20;;
22441;SDS011;11388;54.456;9.752;2023-11-21T21:29:31;1.98;;;1.15;;
22441;SDS011;11388;54.456;9.752;2023-11-21T21:32:10;2.65;;;1.05;;
22441;SDS011;11388;54.456;9.752;2023-11-21T21:34:35;3.13;;;1.10;;
22441;SDS011;11388;54.456;9.752;2023-11-21T21:37:04;2.42;;;1.30;;
22441;SDS011;11388;54.456;9.752;2023-11-21T21:39:30;3.15;;;1.10;;
22441;SDS011;11388;54.456;9.752;2023-11-21T21:41:55;2.13;;;1.10;;
22441;SDS011;11388;54.456;9.752;2023-11-21T21:44:21;2.65;;;1.05;;
22441;SDS011;11388;54.456;9.752;2023-11-21T21:46:47;2.35;;;0.93;;
22441;SDS011;11388;54.456;9.752;2023-11-21T21:49:13;1.90;;;0.90;;
22441;SDS011;11388;54.456;9.752;2023-11-21T21:51:39;1.48;;;1.00;;
22441;SDS011;11388;54.456;9.752;2023-11-21T21:57:05;2.88;;;0.80;;
22441;SDS011;11388;54.456;9.752;2023-11-21T21:59:31;3.17;;;1.00;;
22441;SDS011;11388;54.456;9.752;2023-11-21T22:01:56;1.85;;;0.90;;
22441;SDS011;11388;54.456;9.752;2023-11-21T22:04:22;1.25;;;1.00;;
22441;SDS011;11388;54.456;9.752;2023-11-21T22:06:48;2.05;;;0.95;;
22441;SDS011;11388;54.456;9.752;2023-11-21T22:09:14;1.58;;;1.20;;
22441;SDS011;11388;54.456;9.752;2023-11-21T22:11:40;2.10;;;1.00;;
22441;SDS011;11388;54.456;9.752;2023-11-21T22:14:06;1.40;;;1.00;;
22441;SDS011;11388;54.456;9.752;2023-11-21T22:16:33;5.78;;;1.15;;
22441;SDS011;11388;54.456;9.752;2023-11-21T22:18:59;3.63;;;1.10;;
22441;SDS011;11388;54.456;9.752;2023-11-21T22:21:24;2.35;;;1.30;;
22441;SDS011;11388;54.456;9.752;2023-11-21T22:23:51;1.98;;;1.13;;
22441;SDS011;11388;54.456;9.752;2023-11-21T22:26:17;2.88;;;1.20;;
22441;SDS011;11388;54.456;9.752;2023-11-21T22:28:45;2.85;;;1.10;;
22441;SDS011;11388;54.456;9.752;2023-11-21T22:31:11;3.55;;;1.20;;
22441;SDS011;11388;54.456;9.752;2023-11-21T22:33:36;2.33;;;1.15;;
22441;SDS011;11388;54.456;9.752;2023-11-21T22:36:02;2.95;;;1.10;;
22441;SDS011;11388;54.456;9.752;2023-11-21T22:38:28;2.05;;;1.00;;
22441;SDS011;11388;54.456;9.752;2023-11-21T22:40:55;1.70;;;1.10;;
22441;SDS011;11388;54.456;9.752;2023-11-21T22:43:20;2.28;;;1.10;;
22441;SDS011;11388;54.456;9.752;2023-11-21T22:45:46;2.45;;;1.10;;
22441;SDS011;11388;54.456;9.752;2023-11-21T22:48:12;2.42;;;1.27;;
22441;SDS011;11388;54.456;9.752;2023-11-21T22:50:38;3.78;;;1.20;;
22441;SDS011;11388;54.456;9.752;2023-11-21T22:53:03;1.42;;;0.95;;
22441;SDS011;11388;54.456;9.752;2023-11-21T22:55:29;5.93;;;1.27;;
22441;SDS011;11388;54.456;9.752;2023-11-21T22:57:55;2.80;;;1.33;;
22441;SDS011;11388;54.456;9.752;2023-11-21T23:00:20;2.70;;;1.27;;
22441;SDS011;11388;54.456;9.752;2023-11-21T23:02:54;3.03;;;1.08;;
22441;SDS011;11388;54.456;9.752;2023-11-21T23:05:20;2.00;;;1.02;;
22441;SDS011;11388;54.456;9.752;2023-11-21T23:07:46;1.80;;;1.10;;
22441;SDS011;11388;54.456;9.752;2023-11-21T23:10:12;2.40;;;1.20;;
22441;SDS011;11388;54.456;9.752;2023-11-21T23:12:38;2.47;;;1.30;;
22441;SDS011;11388;54.456;9.752;2023-11-21T23:15:04;2.78;;;1.50;;
22441;SDS011;11388;54.456;9.752;2023-11-21T23:17:30;3.05;;;1.85;;
22441;SDS011;11388;54.456;9.752;2023-11-21T23:19:56;2.90;;;1.83;;
22441;SDS011;11388;54.456;9.752;2023-11-21T23:22:22;3.50;;;1.95;;
22441;SDS011;11388;54.456;9.752;2023-11-21T23:24:48;3.47;;;1.90;;
22441;SDS011;11388;54.456;9.752;2023-11-21T23:27:14;2.33;;;1.50;;
22441;SDS011;11388;54.456;9.752;2023-11-21T23:29:40;5.05;;;1.70;;
22441;SDS011;11388;54.456;9.752;2023-11-21T23:32:09;3.40;;;2.20;;
22441;SDS011;11388;54.456;9.752;2023-11-21T23:34:36;3.90;;;2.35;;
22441;SDS011;11388;54.456;9.752;2023-11-21T23:37:02;5.47;;;2.08;;
22441;SDS011;11388;54.456;9.752;2023-11-21T23:39:28;3.47;;;2.00;;
22441;SDS011;11388;54.456;9.752;2023-11-21T23:41:54;2.60;;;1.80;;
22441;SDS011;11388;54.456;9.752;2023-11-21T23:44:20;4.30;;;2.30;;
22441;SDS011;11388;54.456;9.752;2023-11-21T23:46:46;3.78;;;2.22;;
22441;SDS011;11388;54.456;9.752;2023-11-21T23:49:12;3.60;;;2.47;;
22441;SDS011;11388;54.456;9.752;2023-11-21T23:51:37;3.22;;;2.10;;
22441;SDS011;11388;54.456;9.752;2023-11-21T23:54:06;4.80;;;2.30;;
22441;SDS011;11388;54.456;9.752;2023-11-21T23:56:32;3.25;;;2.00;;
22441;SDS011;11388;54.456;9.752;2023-11-21T23:58:58;4.60;;;2.03;;
